Stations météo

Publicité
Puerto Plata, République Dominicaine (78457): Température de l'air & dewpoint: 24.03.2017 08:00:00 - 30.03.2017 08:00:00 (AST)Puerto Plata, République Dominicaine (78457): Vitesse du vent: 24.03.2017 08:00:00 - 30.03.2017 08:00:00 (AST)Puerto Plata, République Dominicaine (78457): Direction du vent: 24.03.2017 08:00:00 - 30.03.2017 08:00:00 (AST)Puerto Plata, République Dominicaine (78457): visibility: 24.03.2017 08:00:00 - 30.03.2017 08:00:00 (AST)
Date & Time tt [°C] td [°C] ff [km/h] ff [knt] dd vv [km]
30.03.2017 08:00:00 22,0 21,0 0 0 N 8
30.03.2017 07:00:00 22,0 21,0 0 0 N 10
30.03.2017 06:00:00 - - - - - -
30.03.2017 05:00:00 22,0 21,0 0 0 N 10
30.03.2017 04:00:00 - - - - - -
30.03.2017 03:00:00 - - - - - -
30.03.2017 02:00:00 23,0 21,0 0 0 N 10
30.03.2017 01:00:00 - - - - - -
30.03.2017 00:00:00 - - - - - -
29.03.2017 23:00:00 - - - - - -
29.03.2017 22:00:00 - - - - - -
29.03.2017 21:00:00 - - - - - -
29.03.2017 20:00:00 25,0 22,0 0 0 N 10
29.03.2017 19:00:00 25,0 22,0 18 10 ENE 10
29.03.2017 18:00:00 26,0 22,0 18 10 NE 10
29.03.2017 17:00:00 27,0 22,0 15 8 NNE 10
29.03.2017 16:00:00 28,0 22,0 15 8 N 10
29.03.2017 15:00:00 28,0 22,0 18 10 NNE 10
29.03.2017 14:00:00 28,0 22,0 15 8 NNE 10
29.03.2017 13:00:00 28,0 22,0 15 8 NW 10
29.03.2017 12:00:00 28,0 23,0 18 10 N 10
29.03.2017 11:00:00 27,0 23,0 9 5 N 10
29.03.2017 10:00:00 25,0 22,0 0 0 N 10
29.03.2017 09:00:00 23,0 21,0 0 0 N 10
29.03.2017 08:00:00 22,0 21,0 0 0 N 10
29.03.2017 07:00:00 21,0 21,0 0 0 N 10
29.03.2017 06:00:00 - - - - - -
29.03.2017 05:00:00 22,0 21,0 0 0 N 10
29.03.2017 04:00:00 - - - - - -
29.03.2017 03:00:00 - - - - - -
29.03.2017 02:00:00 23,0 21,0 0 0 N 10
29.03.2017 01:00:00 - - - - - -
29.03.2017 00:00:00 - - - - - -
28.03.2017 23:00:00 23,0 21,0 0 0 N 10
28.03.2017 22:00:00 - - - - - -
28.03.2017 21:00:00 - - - - - -
28.03.2017 20:00:00 25,0 21,0 9 5 NNW 10
28.03.2017 19:00:00 26,0 21,0 0 0 N 10
28.03.2017 18:00:00 26,0 21,0 15 8 NW 10
28.03.2017 17:00:00 27,0 21,0 15 8 NNW 10
28.03.2017 16:00:00 27,0 21,0 15 8 NW 10
28.03.2017 15:00:00 27,0 21,0 18 10 NW 10
28.03.2017 14:00:00 27,0 22,0 15 8 NNW 10
28.03.2017 13:00:00 28,0 21,0 22 12 NW 10
28.03.2017 12:00:00 28,0 22,0 18 10 W 10
28.03.2017 11:00:00 27,0 22,0 18 10 W 10
28.03.2017 10:00:00 25,0 21,0 0 0 N 10
28.03.2017 09:00:00 23,0 21,0 0 0 N 10
28.03.2017 08:00:00 22,0 21,0 0 0 N 10
28.03.2017 07:00:00 22,0 21,0 0 0 N 10
28.03.2017 06:00:00 - - - - - -
28.03.2017 05:00:00 23,0 21,0 0 0 N 10
28.03.2017 04:00:00 - - - - - -
28.03.2017 03:00:00 - - - - - -
28.03.2017 02:00:00 23,0 21,0 0 0 N 10
28.03.2017 01:00:00 - - - - - -
28.03.2017 00:00:00 - - - - - -
27.03.2017 23:00:00 24,0 21,0 0 0 N 10
27.03.2017 22:00:00 - - - - - -
27.03.2017 21:00:00 - - - - - -
27.03.2017 20:00:00 25,0 22,0 15 8 WNW 10
27.03.2017 19:00:00 26,0 22,0 15 8 WNW 10
27.03.2017 18:00:00 27,0 22,0 15 8 NW 10
27.03.2017 17:00:00 27,0 22,0 18 10 NW 10
27.03.2017 16:00:00 28,0 23,0 18 10 WNW 10
27.03.2017 15:00:00 28,0 23,0 15 8 WNW 10
27.03.2017 14:00:00 28,0 23,0 18 10 NW 10
27.03.2017 13:00:00 28,0 23,0 22 12 NNW 10
27.03.2017 12:00:00 27,0 22,0 22 12 NNW 10
27.03.2017 11:00:00 27,0 20,0 13 7 NNW 10
27.03.2017 10:00:00 27,0 21,0 - - - 3,0
27.03.2017 09:00:00 25,0 20,0 0 0 N 10
27.03.2017 08:00:00 21,0 18,0 0 0 N 10
27.03.2017 07:00:00 19,0 19,0 0 0 N 10
27.03.2017 06:00:00 - - - - - -
27.03.2017 05:00:00 20,0 20,0 0 0 N 10
27.03.2017 04:00:00 - - - - - -
27.03.2017 03:00:00 - - - - - -
27.03.2017 02:00:00 22,0 21,0 0 0 N 10
27.03.2017 01:00:00 - - - - - -
27.03.2017 00:00:00 - - - - - -
26.03.2017 23:00:00 23,0 21,0 9 5 SW 10
26.03.2017 22:00:00 - - - - - -
26.03.2017 21:00:00 - - - - - -
26.03.2017 20:00:00 25,0 21,0 18 10 WNW 10
26.03.2017 19:00:00 25,0 21,0 9 5 NNW 10
26.03.2017 18:00:00 26,0 22,0 9 5 NNW 10
26.03.2017 17:00:00 26,0 22,0 9 5 NNW 10
26.03.2017 16:00:00 27,0 22,0 13 7 NNW 10
26.03.2017 15:00:00 26,0 22,0 9 5 NNW 10
26.03.2017 14:00:00 27,0 22,0 18 10 NNW 10
26.03.2017 13:00:00 27,0 22,0 18 10 NNW 10
26.03.2017 12:00:00 27,0 22,0 18 10 NNW 10
26.03.2017 11:00:00 26,0 22,0 8 4 NNW 10
26.03.2017 10:00:00 24,0 22,0 11 6 NNW 10
26.03.2017 09:00:00 23,0 20,0 0 0 N 10
26.03.2017 08:00:00 22,0 19,0 0 0 N 10
26.03.2017 07:00:00 22,0 21,0 0 0 N 10
26.03.2017 06:00:00 - - - - - -
26.03.2017 05:00:00 22,0 21,0 0 0 N 10
26.03.2017 04:00:00 - - - - - -
26.03.2017 03:00:00 - - - - - -
26.03.2017 02:00:00 22,0 21,0 0 0 N 10
26.03.2017 01:00:00 - - - - - -
26.03.2017 00:00:00 - - - - - -
25.03.2017 23:00:00 23,0 21,0 0 0 N 10
25.03.2017 22:00:00 - - - - - -
25.03.2017 21:00:00 - - - - - -
25.03.2017 20:00:00 25,0 21,0 8 4 N 10
25.03.2017 19:00:00 25,0 23,0 0 0 N 10
25.03.2017 18:00:00 26,0 23,0 11 6 N 10
25.03.2017 17:00:00 26,0 23,0 8 4 N 10
25.03.2017 16:00:00 27,0 22,0 8 4 N 10
25.03.2017 15:00:00 27,0 22,0 8 4 N 10
25.03.2017 14:00:00 27,0 22,0 0 0 N 10
25.03.2017 13:00:00 28,0 22,0 0 0 N 10
25.03.2017 12:00:00 28,0 22,0 18 10 N 8
25.03.2017 11:00:00 27,0 21,0 11 6 N 10
25.03.2017 10:00:00 27,0 22,0 9 5 NNW 10
25.03.2017 09:00:00 25,0 21,0 0 0 N 10
25.03.2017 08:00:00 20,0 19,0 0 0 N 10
25.03.2017 07:00:00 20,0 20,0 0 0 N 8
25.03.2017 06:00:00 - - - - - -
25.03.2017 05:00:00 - - - - - -
25.03.2017 04:00:00 - - - - - -
25.03.2017 03:00:00 - - - - - -
25.03.2017 02:00:00 20,0 20,0 28 15 E 2,0
25.03.2017 01:00:00 - - - - - -
25.03.2017 00:00:00 - - - - - -
24.03.2017 23:00:00 21,0 21,0 0 0 N 8
24.03.2017 22:00:00 - - - - - -
24.03.2017 21:00:00 - - - - - -
24.03.2017 20:00:00 22,0 21,0 13 7 W 8
24.03.2017 19:00:00 22,0 22,0 0 0 N 8
24.03.2017 18:00:00 23,0 22,0 9 5 ESE 8
24.03.2017 17:00:00 24,0 22,0 9 5 ESE 10
24.03.2017 16:00:00 23,0 22,0 15 8 ESE 8
24.03.2017 15:00:00 23,0 22,0 15 8 E 8
24.03.2017 14:00:00 22,0 22,0 9 5 ESE 6
24.03.2017 13:00:00 24,0 22,0 9 5 S 8
24.03.2017 12:00:00 22,0 21,0 11 6 NNW 8
24.03.2017 11:00:00 22,0 22,0 0 0 N 4,0
24.03.2017 10:00:00 22,0 22,0 0 0 N 2,0
24.03.2017 09:00:00 22,0 22,0 9 5 S 2,0
24.03.2017 08:00:00 21,0 21,0 0 0 N 4,0

tt = Température de l'air
td = dewpoint
ff = Vitesse du vent
dd = Direction du vent
vv = visibility

stations d'obs. à proximité